createdAt,value
2018-07-02T00:00:08.852Z,1015.32
2018-07-02T00:01:08.875Z,1015.28
2018-07-02T00:02:08.896Z,1015.29
2018-07-02T00:03:08.922Z,1015.3
2018-07-02T00:04:08.941Z,1015.3
2018-07-02T00:05:08.961Z,1015.32
2018-07-02T00:06:09.085Z,1015.36
2018-07-02T00:07:09.006Z,1015.33
2018-07-02T00:08:09.031Z,1015.37
2018-07-02T00:09:09.051Z,1015.34
2018-07-02T00:10:09.073Z,1015.38
2018-07-02T00:11:09.144Z,1015.38
2018-07-02T00:12:09.117Z,1015.39
2018-07-02T00:14:09.161Z,1015.33
2018-07-02T00:15:09.181Z,1015.38
2018-07-02T00:16:09.254Z,1015.37
2018-07-02T00:17:09.226Z,1015.31
2018-07-02T00:18:09.248Z,1015.31
2018-07-02T00:19:09.269Z,1015.29
2018-07-02T00:20:09.293Z,1015.29
2018-07-02T00:21:09.314Z,1015.28
2018-07-02T00:22:09.336Z,1015.26
2018-07-02T00:23:09.358Z,1015.21
2018-07-02T00:24:09.379Z,1015.26
2018-07-02T00:25:09.402Z,1015.19
2018-07-02T00:26:09.424Z,1015.2
2018-07-02T00:27:09.447Z,1015.19
2018-07-02T00:28:09.467Z,1015.19
2018-07-02T00:30:09.511Z,1015.17
2018-07-02T00:31:09.533Z,1015.23
2018-07-02T00:32:09.554Z,1015.22
2018-07-02T00:33:09.576Z,1015.2
2018-07-02T00:34:09.599Z,1015.24
2018-07-02T00:35:09.620Z,1015.16
2018-07-02T00:36:09.642Z,1015.21
2018-07-02T00:37:09.662Z,1015.24
2018-07-02T00:38:09.688Z,1015.2
2018-07-02T00:39:09.709Z,1015.22
2018-07-02T00:40:09.727Z,1015.24
2018-07-02T00:41:09.751Z,1015.25
2018-07-02T00:42:09.772Z,1015.21
2018-07-02T00:43:09.795Z,1015.21
2018-07-02T00:45:09.838Z,1015.24
2018-07-02T00:46:09.859Z,1015.2
2018-07-02T00:47:09.881Z,1015.15
2018-07-02T00:48:09.904Z,1015.17
2018-07-02T00:49:09.926Z,1015.14
2018-07-02T00:50:09.947Z,1015.12
2018-07-02T00:51:09.968Z,1015.12
2018-07-02T00:52:09.990Z,1015.08
2018-07-02T00:53:10.010Z,1015.05
2018-07-02T00:54:10.033Z,1015.11
2018-07-02T00:55:10.055Z,1015.12
2018-07-02T00:56:10.078Z,1015.09
2018-07-02T00:57:10.099Z,1015.1
2018-07-02T00:58:10.120Z,1015.06
2018-07-02T00:59:10.142Z,1015.02
2018-07-02T01:00:10.164Z,1015.01
2018-07-02T01:01:10.184Z,1015.02
2018-07-02T01:02:10.206Z,1015.02
2018-07-02T01:03:10.228Z,1015.02
2018-07-02T01:04:10.248Z,1014.98
2018-07-02T01:05:10.271Z,1015.04
2018-07-02T01:06:10.293Z,1014.96
2018-07-02T01:07:10.314Z,1014.96
2018-07-02T01:08:10.334Z,1015.01
2018-07-02T01:09:10.356Z,1015.02
2018-07-02T01:10:10.377Z,1015.03
2018-07-02T01:11:10.400Z,1015.01
2018-07-02T01:12:10.421Z,1015.01
2018-07-02T01:13:10.443Z,1015.01
2018-07-02T01:14:10.465Z,1015.02
2018-07-02T01:15:10.487Z,1015.03
2018-07-02T01:17:10.529Z,1014.98
2018-07-02T01:18:10.552Z,1014.94
2018-07-02T01:19:10.575Z,1014.92
2018-07-02T01:20:10.595Z,1014.95
2018-07-02T01:21:10.616Z,1015.01
2018-07-02T01:22:10.638Z,1014.96
2018-07-02T01:23:10.657Z,1014.98
2018-07-02T01:24:10.681Z,1015.01
2018-07-02T01:25:10.702Z,1015.01
2018-07-02T01:26:10.723Z,1014.99
2018-07-02T01:27:10.745Z,1015
2018-07-02T01:28:10.767Z,1014.98
2018-07-02T01:29:10.787Z,1014.98
2018-07-02T01:30:10.807Z,1014.97
2018-07-02T01:31:10.829Z,1014.99
2018-07-02T01:33:10.873Z,1014.97
2018-07-02T01:34:10.893Z,1014.97
2018-07-02T01:35:10.915Z,1014.97
2018-07-02T01:36:10.937Z,1014.96
2018-07-02T01:37:10.957Z,1014.94
2018-07-02T01:38:10.979Z,1014.96
2018-07-02T01:39:11.001Z,1014.93
2018-07-02T01:40:11.021Z,1014.89
2018-07-02T01:41:11.052Z,1014.91
2018-07-02T01:42:11.064Z,1014.85
2018-07-02T01:43:11.086Z,1014.8
2018-07-02T01:44:11.107Z,1014.82
2018-07-02T01:45:11.128Z,1014.81
2018-07-02T01:46:11.150Z,1014.75
2018-07-02T01:47:11.169Z,1014.72
2018-07-02T01:49:11.213Z,1014.73
2018-07-02T01:50:11.234Z,1014.7
2018-07-02T01:51:11.257Z,1014.72
2018-07-02T01:52:11.277Z,1014.74
2018-07-02T01:53:11.297Z,1014.78
2018-07-02T01:54:11.320Z,1014.83
2018-07-02T01:55:11.342Z,1014.84
2018-07-02T01:56:11.361Z,1014.84
2018-07-02T01:57:11.386Z,1014.9
2018-07-02T01:58:11.405Z,1014.88
2018-07-02T01:59:11.424Z,1014.88
2018-07-02T02:00:11.446Z,1014.88
2018-07-02T02:01:11.468Z,1014.88
2018-07-02T02:02:11.488Z,1014.91
2018-07-02T02:03:11.512Z,1014.9
2018-07-02T02:05:11.552Z,1014.95
2018-07-02T02:06:11.574Z,1014.9
2018-07-02T02:07:11.594Z,1014.92
2018-07-02T02:08:11.616Z,1014.91
2018-07-02T02:09:11.637Z,1014.93
2018-07-02T02:10:11.657Z,1014.95
2018-07-02T02:11:11.679Z,1014.92
2018-07-02T02:12:11.700Z,1014.94
2018-07-02T02:13:11.722Z,1014.95
2018-07-02T02:14:11.742Z,1014.97
2018-07-02T02:15:11.765Z,1014.98
2018-07-02T02:16:11.785Z,1014.98
2018-07-02T02:17:11.805Z,1014.99
2018-07-02T02:18:11.827Z,1014.99
2018-07-02T02:20:11.873Z,1015.01
2018-07-02T02:21:11.890Z,1015.06
2018-07-02T02:22:11.912Z,1015.05
2018-07-02T02:23:11.934Z,1015.04
2018-07-02T02:24:11.955Z,1015.05
2018-07-02T02:25:11.976Z,1015.12
2018-07-02T02:26:11.998Z,1015.11
2018-07-02T02:27:12.018Z,1015.1
2018-07-02T02:28:12.038Z,1015.16
2018-07-02T02:29:12.060Z,1015.15
2018-07-02T02:30:12.081Z,1015.12
2018-07-02T02:31:12.106Z,1015.11
2018-07-02T02:32:12.125Z,1015.13
2018-07-02T02:33:12.145Z,1015.09
2018-07-02T02:34:12.164Z,1015.09
2018-07-02T02:35:12.186Z,1015.06
2018-07-02T02:36:12.208Z,1014.98
2018-07-02T02:37:12.228Z,1014.96
2018-07-02T02:38:12.253Z,1014.99
2018-07-02T02:39:12.269Z,1015.03
2018-07-02T02:40:12.290Z,1015.03
2018-07-02T02:41:12.316Z,1015.02
2018-07-02T02:42:12.332Z,1015.01
2018-07-02T02:43:12.353Z,1015
2018-07-02T02:44:12.375Z,1015.03
2018-07-02T02:45:12.395Z,1014.98
2018-07-02T02:46:12.417Z,1015.03
2018-07-02T02:47:12.440Z,1015.01
2018-07-02T02:48:12.459Z,1015
2018-07-02T02:49:12.478Z,1015
2018-07-02T02:50:12.502Z,1015
2018-07-02T02:52:12.540Z,1014.97
2018-07-02T02:53:12.562Z,1014.95
2018-07-02T02:54:12.582Z,1014.95
2018-07-02T02:55:12.606Z,1014.92
2018-07-02T02:56:12.626Z,1014.96
2018-07-02T02:57:12.645Z,1014.93
2018-07-02T02:58:12.666Z,1014.95
2018-07-02T02:59:12.688Z,1014.94
2018-07-02T03:00:12.708Z,1014.88
2018-07-02T03:01:12.728Z,1014.91
2018-07-02T03:02:12.749Z,1014.94
2018-07-02T03:03:12.770Z,1014.91
2018-07-02T03:04:12.791Z,1014.94
2018-07-02T03:05:12.812Z,1014.94
2018-07-02T03:06:12.834Z,1014.94
2018-07-02T03:08:12.881Z,1014.93
2018-07-02T03:09:12.895Z,1014.89
2018-07-02T03:10:12.918Z,1014.9
2018-07-02T03:11:12.938Z,1014.89
2018-07-02T03:12:12.958Z,1014.85
2018-07-02T03:13:12.977Z,1014.83
2018-07-02T03:14:12.999Z,1014.81
2018-07-02T03:15:13.021Z,1014.8
2018-07-02T03:16:13.042Z,1014.8
2018-07-02T03:17:13.063Z,1014.78
2018-07-02T03:18:13.081Z,1014.83
2018-07-02T03:19:13.104Z,1014.85
2018-07-02T03:20:13.164Z,1014.86
2018-07-02T03:21:13.145Z,1014.85
2018-07-02T03:22:13.171Z,1014.86
2018-07-02T03:24:13.219Z,1014.85
2018-07-02T03:25:13.229Z,1014.83
2018-07-02T03:26:13.250Z,1014.82
2018-07-02T03:27:13.268Z,1014.85
2018-07-02T03:28:13.292Z,1014.84
2018-07-02T03:29:13.314Z,1014.87
2018-07-02T03:30:13.332Z,1014.84
2018-07-02T03:31:13.354Z,1014.85
2018-07-02T03:32:13.373Z,1014.84
2018-07-02T03:33:13.394Z,1014.89
2018-07-02T03:34:13.414Z,1014.85
2018-07-02T03:35:13.435Z,1014.84
2018-07-02T03:36:13.456Z,1014.79
2018-07-02T03:37:13.477Z,1014.82
2018-07-02T03:38:13.496Z,1014.79
2018-07-02T03:40:13.537Z,1014.76
2018-07-02T03:41:13.560Z,1014.77
2018-07-02T03:42:13.580Z,1014.81
2018-07-02T03:43:13.599Z,1014.79
2018-07-02T03:44:13.622Z,1014.79
2018-07-02T03:45:13.642Z,1014.79
2018-07-02T03:46:13.662Z,1014.78
2018-07-02T03:47:13.684Z,1014.76
2018-07-02T03:48:13.705Z,1014.78
2018-07-02T03:49:13.728Z,1014.78
2018-07-02T03:50:13.746Z,1014.8
2018-07-02T03:51:13.766Z,1014.77
2018-07-02T03:52:13.789Z,1014.75
2018-07-02T03:53:13.809Z,1014.75
2018-07-02T03:55:13.851Z,1014.79
2018-07-02T03:56:13.871Z,1014.83
2018-07-02T03:57:13.893Z,1014.81
2018-07-02T03:58:13.913Z,1014.79
2018-07-02T03:59:13.934Z,1014.79
2018-07-02T04:00:13.955Z,1014.78
2018-07-02T04:01:13.988Z,1014.78
2018-07-02T04:02:13.995Z,1014.82
2018-07-02T04:03:14.018Z,1014.8
2018-07-02T04:04:14.039Z,1014.8
2018-07-02T04:05:14.059Z,1014.81
2018-07-02T04:06:14.079Z,1014.82
2018-07-02T04:07:14.100Z,1014.82
2018-07-02T04:08:14.124Z,1014.86
2018-07-02T04:09:14.141Z,1014.84
2018-07-02T04:10:14.163Z,1014.84
2018-07-02T04:11:14.183Z,1014.85
2018-07-02T04:12:14.335Z,1014.91
2018-07-02T04:13:14.226Z,1014.9
2018-07-02T04:14:14.246Z,1015.14
2018-07-02T04:15:14.272Z,1015.47
2018-07-02T04:16:14.289Z,1015.58
2018-07-02T04:17:14.311Z,1015.62
2018-07-02T04:18:14.332Z,1015.57
2018-07-02T04:19:14.354Z,1015.65
2018-07-02T04:20:14.378Z,1015.65
2018-07-02T04:21:14.401Z,1015.61
2018-07-02T04:22:14.421Z,1015.68
2018-07-02T04:23:14.447Z,1015.68
2018-07-02T04:24:14.474Z,1015.68
2018-07-02T04:25:14.495Z,1015.73
2018-07-02T04:27:14.549Z,1015.77
2018-07-02T04:28:14.570Z,1015.73
2018-07-02T04:29:14.595Z,1015.74
2018-07-02T04:30:14.620Z,1015.8
2018-07-02T04:31:14.646Z,1015.76
2018-07-02T04:32:14.672Z,1015.82
2018-07-02T04:33:14.698Z,1015.76
2018-07-02T04:34:14.779Z,1015.8
2018-07-02T04:35:14.750Z,1015.81
2018-07-02T04:36:14.775Z,1015.77
2018-07-02T04:37:14.803Z,1015.78
2018-07-02T04:38:14.830Z,1015.77
2018-07-02T04:39:14.857Z,1015.78
2018-07-02T04:40:14.885Z,1015.77
2018-07-02T04:41:14.913Z,1015.76
2018-07-02T04:43:14.968Z,1015.68
2018-07-02T04:44:14.998Z,1015.65
2018-07-02T04:45:15.082Z,1015.58
2018-07-02T04:46:15.054Z,1015.6
2018-07-02T04:47:15.080Z,1015.53
2018-07-02T04:48:15.110Z,1015.51
2018-07-02T04:49:15.139Z,1015.48
2018-07-02T04:50:15.169Z,1015.52
2018-07-02T04:51:15.199Z,1015.52
2018-07-02T04:52:15.228Z,1015.5
2018-07-02T04:53:15.257Z,1015.52
2018-07-02T04:54:15.288Z,1015.51
2018-07-02T04:55:15.318Z,1015.52
2018-07-02T04:56:15.348Z,1015.54
2018-07-02T04:57:15.380Z,1015.52
2018-07-02T04:59:15.441Z,1015.51
2018-07-02T05:00:15.471Z,1015.51
2018-07-02T05:01:15.503Z,1015.51
2018-07-02T05:02:15.537Z,1015.52
2018-07-02T05:03:15.633Z,1015.53
2018-07-02T05:04:15.598Z,1015.55
2018-07-02T05:05:15.631Z,1015.58
2018-07-02T05:06:15.662Z,1015.58
2018-07-02T05:07:15.693Z,1015.58
2018-07-02T05:08:15.725Z,1015.62
2018-07-02T05:09:15.758Z,1015.65
2018-07-02T05:10:15.791Z,1015.68
2018-07-02T05:11:15.824Z,1015.7
2018-07-02T05:12:15.857Z,1015.75
2018-07-02T05:13:15.888Z,1015.77
2018-07-02T05:15:15.954Z,1015.9
2018-07-02T05:16:15.991Z,1015.91
2018-07-02T05:17:16.022Z,1015.98
2018-07-02T05:18:16.055Z,1015.93
2018-07-02T05:19:16.089Z,1015.95
2018-07-02T05:20:16.121Z,1015.95
2018-07-02T05:21:16.157Z,1015.96
2018-07-02T05:22:16.189Z,1015.94
2018-07-02T05:23:16.224Z,1015.96
2018-07-02T05:24:16.257Z,1015.93
2018-07-02T05:25:16.291Z,1015.92
2018-07-02T05:26:16.325Z,1015.97
2018-07-02T05:27:16.359Z,1015.92
2018-07-02T05:28:16.394Z,1015.96
2018-07-02T05:30:16.463Z,1015.98
2018-07-02T05:31:16.500Z,1015.97
2018-07-02T05:32:16.533Z,1015.99
2018-07-02T05:33:16.567Z,1015.9
2018-07-02T05:34:16.602Z,1015.91
2018-07-02T05:35:16.636Z,1015.91
2018-07-02T05:36:16.671Z,1015.96
2018-07-02T05:37:16.709Z,1015.93
2018-07-02T05:38:16.740Z,1015.92
2018-07-02T05:39:16.776Z,1015.95
2018-07-02T05:40:16.811Z,1015.94
2018-07-02T05:41:16.847Z,1015.96
2018-07-02T05:42:16.882Z,1015.98
2018-07-02T05:43:16.917Z,1016.04
2018-07-02T05:44:16.954Z,1015.97
2018-07-02T05:45:16.991Z,1015.99
2018-07-02T05:46:17.026Z,1016
2018-07-02T05:47:17.058Z,1016
2018-07-02T05:48:17.097Z,1015.99
2018-07-02T05:49:17.133Z,1015.94
2018-07-02T05:50:17.165Z,1015.95
2018-07-02T05:51:17.200Z,1016
2018-07-02T05:52:17.237Z,1015.99
2018-07-02T05:53:17.272Z,1015.96
2018-07-02T05:54:17.306Z,1016
2018-07-02T05:55:17.344Z,1015.96
2018-07-02T05:56:17.380Z,1015.99
2018-07-02T05:57:17.415Z,1015.94
2018-07-02T05:58:17.451Z,1015.97
2018-07-02T05:59:17.491Z,1015.99
2018-07-02T06:00:17.618Z,1015.94
2018-07-02T06:02:17.595Z,1015.91
2018-07-02T06:03:17.632Z,1015.9
2018-07-02T06:04:17.669Z,1015.91
2018-07-02T06:05:17.703Z,1015.95
2018-07-02T06:06:17.740Z,1015.93
2018-07-02T06:07:17.775Z,1015.92
2018-07-02T06:08:17.818Z,1015.83
2018-07-02T06:09:17.847Z,1015.8
2018-07-02T06:10:17.884Z,1015.82
2018-07-02T06:11:17.919Z,1015.86
2018-07-02T06:12:17.955Z,1015.74
2018-07-02T06:13:18.104Z,1015.72
2018-07-02T06:14:18.033Z,1015.63
2018-07-02T06:15:18.063Z,1015.66
2018-07-02T06:16:18.100Z,1015.64
2018-07-02T06:18:18.173Z,1015.57
2018-07-02T06:19:18.208Z,1015.54
2018-07-02T06:20:18.244Z,1015.52
2018-07-02T06:21:18.290Z,1015.49
2018-07-02T06:22:18.316Z,1015.43
2018-07-02T06:23:18.352Z,1015.44
2018-07-02T06:24:18.389Z,1015.45
2018-07-02T06:25:18.430Z,1015.47
2018-07-02T06:26:18.460Z,1015.51
2018-07-02T06:27:18.497Z,1015.55
2018-07-02T06:28:18.535Z,1015.56
2018-07-02T06:29:18.570Z,1015.59
2018-07-02T06:30:18.605Z,1015.64
2018-07-02T06:31:18.649Z,1015.65
2018-07-02T06:32:18.678Z,1015.57
2018-07-02T06:34:18.751Z,1015.63
2018-07-02T06:35:18.787Z,1015.65
2018-07-02T06:36:18.822Z,1015.7
2018-07-02T06:37:18.858Z,1015.71
2018-07-02T06:38:18.895Z,1015.77
2018-07-02T06:39:18.931Z,1015.73
2018-07-02T06:40:18.977Z,1015.76
2018-07-02T06:41:19.005Z,1015.79
2018-07-02T06:42:19.040Z,1015.77
2018-07-02T06:43:19.076Z,1015.75
2018-07-02T06:44:19.116Z,1015.77
2018-07-02T06:45:19.147Z,1015.78
2018-07-02T06:46:19.185Z,1015.82
2018-07-02T06:47:19.221Z,1015.79
2018-07-02T06:48:19.256Z,1015.85
2018-07-02T06:50:19.329Z,1015.85
2018-07-02T06:51:19.366Z,1015.88
2018-07-02T06:52:19.405Z,1015.87
2018-07-02T06:53:19.438Z,1015.81
2018-07-02T06:54:19.474Z,1015.81
2018-07-02T06:55:19.510Z,1015.81
2018-07-02T06:56:19.546Z,1015.84
2018-07-02T06:57:19.583Z,1015.88
2018-07-02T06:58:19.621Z,1015.81
2018-07-02T06:59:19.654Z,1015.83
2018-07-02T07:00:19.690Z,1015.87
2018-07-02T07:01:19.728Z,1015.92
2018-07-02T07:02:19.763Z,1016.04
2018-07-02T07:03:19.800Z,1016.18
2018-07-02T07:05:19.884Z,1016.14
2018-07-02T07:06:19.909Z,1016.21
2018-07-02T07:07:19.946Z,1016.15
2018-07-02T07:08:19.982Z,1016.14
2018-07-02T07:09:20.020Z,1016.16
2018-07-02T07:10:20.054Z,1016.11
2018-07-02T07:11:20.091Z,1016.17
2018-07-02T07:12:20.126Z,1016.13
2018-07-02T07:13:20.161Z,1016.18
2018-07-02T07:14:20.199Z,1016.22
2018-07-02T07:15:20.235Z,1016.18
2018-07-02T07:16:20.273Z,1016.25
2018-07-02T07:17:20.308Z,1016.29
2018-07-02T07:18:20.351Z,1016.32
2018-07-02T07:19:20.380Z,1016.29
2018-07-02T07:20:20.419Z,1016.33
2018-07-02T07:21:20.453Z,1016.48
2018-07-02T07:22:20.489Z,1016.54
2018-07-02T07:23:20.526Z,1016.62
2018-07-02T07:24:20.560Z,1016.53
2018-07-02T07:25:20.597Z,1016.61
2018-07-02T07:26:20.636Z,1016.68
2018-07-02T07:27:20.670Z,1016.7
2018-07-02T07:28:20.705Z,1016.75
2018-07-02T07:29:20.741Z,1016.84
2018-07-02T07:30:20.780Z,1016.82
2018-07-02T07:31:20.816Z,1016.85
2018-07-02T07:32:20.850Z,1016.92
2018-07-02T07:33:20.887Z,1016.98
2018-07-02T07:34:20.923Z,1016.9
2018-07-02T07:35:20.957Z,1016.97
2018-07-02T07:37:21.036Z,1017.08
2018-07-02T07:38:21.066Z,1017.12
2018-07-02T07:39:21.101Z,1017.05
2018-07-02T07:40:21.139Z,1017.09
2018-07-02T07:41:21.174Z,1017.15
2018-07-02T07:42:21.210Z,1017.17
2018-07-02T07:43:21.245Z,1017.15
2018-07-02T07:44:21.281Z,1017.16
2018-07-02T07:45:21.317Z,1017.17
2018-07-02T07:46:21.352Z,1017.13
2018-07-02T07:47:21.389Z,1017.19
2018-07-02T07:48:21.425Z,1017.21
2018-07-02T07:49:21.460Z,1017.18
2018-07-02T07:50:21.495Z,1017.1
2018-07-02T07:51:21.532Z,1017.05
2018-07-02T07:53:21.604Z,1017.05
2018-07-02T07:54:21.638Z,1017.03
2018-07-02T07:55:21.674Z,1016.94
2018-07-02T07:56:21.710Z,1016.88
2018-07-02T07:57:21.743Z,1016.81
2018-07-02T07:58:21.780Z,1016.71
2018-07-02T07:59:21.826Z,1016.69
2018-07-02T08:00:21.853Z,1016.68
2018-07-02T08:01:21.888Z,1016.62
2018-07-02T08:02:21.924Z,1016.58
2018-07-02T08:03:21.959Z,1016.51
2018-07-02T08:04:21.996Z,1016.41
2018-07-02T08:05:22.031Z,1016.33
2018-07-02T08:06:22.066Z,1016.31
2018-07-02T08:07:22.103Z,1016.21
2018-07-02T08:09:22.173Z,1016.14
2018-07-02T08:10:22.211Z,1016.1
2018-07-02T08:11:22.245Z,1016.05
2018-07-02T08:12:22.318Z,1016.06
2018-07-02T08:13:22.315Z,1016
2018-07-02T08:14:22.352Z,1015.99
2018-07-02T08:15:22.388Z,1015.99
2018-07-02T08:16:22.422Z,1015.95
2018-07-02T08:17:22.458Z,1015.95
2018-07-02T08:18:22.493Z,1015.93
2018-07-02T08:19:22.529Z,1015.92
2018-07-02T08:20:22.562Z,1015.87
2018-07-02T08:21:22.599Z,1015.84
2018-07-02T08:22:22.634Z,1015.83
2018-07-02T08:23:22.669Z,1015.87
2018-07-02T08:25:22.743Z,1015.77
2018-07-02T08:26:22.774Z,1015.76
2018-07-02T08:27:22.883Z,1015.79
2018-07-02T08:28:22.844Z,1015.78
2018-07-02T08:29:22.879Z,1015.77
2018-07-02T08:30:22.912Z,1015.71
2018-07-02T08:31:22.949Z,1015.63
2018-07-02T08:32:22.984Z,1015.54
2018-07-02T08:33:23.019Z,1015.63
2018-07-02T08:34:23.052Z,1015.53
2018-07-02T08:35:23.088Z,1015.48
2018-07-02T08:36:23.122Z,1015.43
2018-07-02T08:37:23.156Z,1015.42
2018-07-02T08:38:23.195Z,1015.39
2018-07-02T08:40:23.266Z,1015.3
2018-07-02T08:41:23.310Z,1015.26
2018-07-02T08:42:23.331Z,1015.22
2018-07-02T08:43:23.366Z,1015.26
2018-07-02T08:44:23.400Z,1015.22
2018-07-02T08:45:23.434Z,1015.15
2018-07-02T08:46:23.468Z,1015.16
2018-07-02T08:47:23.503Z,1015.3
2018-07-02T08:48:23.535Z,1015.36
2018-07-02T08:49:23.571Z,1015.36
2018-07-02T08:50:23.606Z,1015.35
2018-07-02T08:51:23.640Z,1015.33
2018-07-02T08:52:23.674Z,1015.09
2018-07-02T08:53:23.709Z,1015.1
2018-07-02T08:54:23.742Z,1015
2018-07-02T08:55:23.777Z,1014.99
2018-07-02T08:56:23.818Z,1014.93
2018-07-02T08:57:23.845Z,1014.91
2018-07-02T08:58:23.927Z,1014.89
2018-07-02T08:59:23.912Z,1014.88
2018-07-02T09:00:23.947Z,1014.86
2018-07-02T09:01:23.986Z,1014.79
2018-07-02T09:02:24.015Z,1014.88
2018-07-02T09:03:24.049Z,1014.79
2018-07-02T09:04:24.083Z,1014.82
2018-07-02T09:05:24.118Z,1014.76
2018-07-02T09:06:24.157Z,1014.74
2018-07-02T09:07:24.185Z,1014.76
2018-07-02T09:08:24.220Z,1014.73
2018-07-02T09:09:24.260Z,1014.7
2018-07-02T09:10:24.288Z,1014.71
2018-07-02T09:12:24.356Z,1014.65
2018-07-02T09:13:24.389Z,1014.62
2018-07-02T09:14:24.425Z,1014.64
2018-07-02T09:15:24.459Z,1014.6
2018-07-02T09:16:24.492Z,1014.54
2018-07-02T09:17:24.527Z,1014.5
2018-07-02T09:18:24.561Z,1014.59
2018-07-02T09:19:24.596Z,1014.49
2018-07-02T09:20:24.629Z,1014.52
2018-07-02T09:21:24.662Z,1014.49
2018-07-02T09:22:24.695Z,1014.47
2018-07-02T09:23:24.731Z,1014.46
2018-07-02T09:24:24.764Z,1014.45
2018-07-02T09:25:24.797Z,1014.44
2018-07-02T09:26:24.831Z,1014.41
2018-07-02T09:28:24.900Z,1014.36
2018-07-02T09:29:24.932Z,1014.35
2018-07-02T09:30:24.967Z,1014.32
2018-07-02T09:31:25.000Z,1014.31
2018-07-02T09:32:25.196Z,1014.24
2018-07-02T09:33:25.069Z,1014.28
2018-07-02T09:34:25.100Z,1014.27
2018-07-02T09:35:25.134Z,1014.28
2018-07-02T09:36:25.164Z,1014.28
2018-07-02T09:37:25.200Z,1014.27
2018-07-02T09:38:25.233Z,1014.23
2018-07-02T09:39:25.283Z,1014.18
2018-07-02T09:40:25.299Z,1014.19
2018-07-02T09:41:25.331Z,1014.15
2018-07-02T09:42:25.366Z,1014.19
2018-07-02T09:44:25.433Z,1014.15
2018-07-02T09:45:25.462Z,1014.2
2018-07-02T09:46:25.500Z,1014.26
2018-07-02T09:47:25.527Z,1014.27
2018-07-02T09:48:25.561Z,1014.3
2018-07-02T09:49:25.646Z,1014.27
2018-07-02T09:50:25.625Z,1014.21
2018-07-02T09:51:25.658Z,1014.23
2018-07-02T09:52:25.690Z,1014.24
2018-07-02T09:53:25.722Z,1014.15
2018-07-02T09:54:25.758Z,1014.15
2018-07-02T09:55:25.786Z,1014.15
2018-07-02T09:56:25.821Z,1014.16
2018-07-02T09:57:25.850Z,1014.15
2018-07-02T09:58:25.882Z,1014.25
2018-07-02T10:00:25.953Z,1014.2
2018-07-02T10:01:25.979Z,1014.16
2018-07-02T10:02:26.012Z,1014.13
2018-07-02T10:03:26.044Z,1014.11
2018-07-02T10:04:26.078Z,1014.07
2018-07-02T10:05:26.109Z,1014.1
2018-07-02T10:06:26.164Z,1014.1
2018-07-02T10:07:26.172Z,1014.13
2018-07-02T10:08:26.204Z,1014.14
2018-07-02T10:09:26.338Z,1014.1
2018-07-02T10:10:26.268Z,1014.15
2018-07-02T10:11:26.299Z,1014.17
2018-07-02T10:12:26.331Z,1014.17
2018-07-02T10:13:26.362Z,1014.16
2018-07-02T10:15:26.426Z,1014.09
2018-07-02T10:16:26.459Z,1014.08
2018-07-02T10:17:26.488Z,1014.09
2018-07-02T10:18:26.521Z,1014.08
2018-07-02T10:19:26.556Z,1014.1
2018-07-02T10:20:26.592Z,1014.05
2018-07-02T10:21:26.613Z,1014
2018-07-02T10:22:26.646Z,1014.06
2018-07-02T10:23:26.716Z,1014.12
2018-07-02T10:24:26.708Z,1014.16
2018-07-02T10:25:26.738Z,1014.07
2018-07-02T10:26:26.769Z,1014.09
2018-07-02T10:27:26.800Z,1014.14
2018-07-02T10:28:26.832Z,1014.06
2018-07-02T10:29:26.871Z,1014.06
2018-07-02T10:30:26.897Z,1014.04
2018-07-02T10:31:27.058Z,1013.97
2018-07-02T10:32:26.954Z,1013.95
2018-07-02T10:33:26.986Z,1013.93
2018-07-02T10:34:27.017Z,1013.91
2018-07-02T10:35:27.049Z,1013.91
2018-07-02T10:36:27.080Z,1013.92
2018-07-02T10:37:27.111Z,1013.97
2018-07-02T10:38:27.142Z,1013.98
2018-07-02T10:39:27.172Z,1014
2018-07-02T10:40:27.204Z,1013.99
2018-07-02T10:41:27.237Z,1014.07
2018-07-02T10:42:27.264Z,1014.03
2018-07-02T10:43:27.294Z,1014.04
2018-07-02T10:44:27.325Z,1014.04
2018-07-02T10:45:27.353Z,1014.02
2018-07-02T10:47:27.417Z,1013.98
2018-07-02T10:48:27.445Z,1013.98
2018-07-02T10:49:27.474Z,1013.98
2018-07-02T10:50:27.581Z,1013.95
2018-07-02T10:51:27.536Z,1013.99
2018-07-02T10:52:27.565Z,1013.95
2018-07-02T10:53:27.594Z,1013.93
2018-07-02T10:54:27.624Z,1013.97
2018-07-02T10:55:27.655Z,1013.93
2018-07-02T10:56:27.683Z,1013.97
2018-07-02T10:57:27.713Z,1013.94
2018-07-02T10:58:27.742Z,1013.92
2018-07-02T10:59:27.773Z,1013.93
2018-07-02T11:00:27.800Z,1013.93
2018-07-02T11:01:27.902Z,1013.95
2018-07-02T11:03:27.890Z,1013.9
2018-07-02T11:04:27.918Z,1013.86
2018-07-02T11:05:27.948Z,1013.94
2018-07-02T11:06:27.977Z,1013.87
2018-07-02T11:07:28.005Z,1013.91
2018-07-02T11:08:28.035Z,1013.94
2018-07-02T11:09:28.064Z,1013.95
2018-07-02T11:10:28.093Z,1013.9
2018-07-02T11:11:28.122Z,1013.89
2018-07-02T11:12:28.165Z,1013.88
2018-07-02T11:13:28.180Z,1013.84
2018-07-02T11:14:28.210Z,1013.81
2018-07-02T11:15:28.237Z,1013.79
2018-07-02T11:16:28.265Z,1013.82
2018-07-02T11:17:28.294Z,1013.79
2018-07-02T11:19:28.349Z,1013.78
2018-07-02T11:20:28.380Z,1013.76
2018-07-02T11:21:28.410Z,1013.72
2018-07-02T11:22:28.437Z,1013.71
2018-07-02T11:23:28.467Z,1013.71
2018-07-02T11:24:28.496Z,1013.71
2018-07-02T11:25:28.527Z,1013.66
2018-07-02T11:26:28.554Z,1013.63
2018-07-02T11:27:28.582Z,1013.64
2018-07-02T11:28:28.621Z,1013.65
2018-07-02T11:29:28.640Z,1013.65
2018-07-02T11:30:28.671Z,1013.64
2018-07-02T11:31:28.698Z,1013.59
2018-07-02T11:32:28.728Z,1013.63
2018-07-02T11:33:28.757Z,1013.57
2018-07-02T11:35:28.815Z,1013.55
2018-07-02T11:36:28.844Z,1013.58
2018-07-02T11:37:28.916Z,1013.56
2018-07-02T11:38:28.900Z,1013.62
2018-07-02T11:39:28.929Z,1013.61
2018-07-02T11:40:28.960Z,1013.59
2018-07-02T11:41:28.988Z,1013.66
2018-07-02T11:42:29.019Z,1013.57
2018-07-02T11:43:29.047Z,1013.62
2018-07-02T11:44:29.072Z,1013.66
2018-07-02T11:45:29.103Z,1013.61
2018-07-02T11:46:29.131Z,1013.59
2018-07-02T11:47:29.160Z,1013.64
2018-07-02T11:48:29.189Z,1013.58
2018-07-02T11:50:29.246Z,1013.61
2018-07-02T11:51:29.275Z,1013.6
2018-07-02T11:52:29.303Z,1013.57
2018-07-02T11:53:29.332Z,1013.6
2018-07-02T11:54:29.360Z,1013.56
2018-07-02T11:55:29.388Z,1013.58
2018-07-02T11:56:29.415Z,1013.57
2018-07-02T11:57:29.551Z,1013.62
2018-07-02T11:58:29.472Z,1013.58
2018-07-02T11:59:29.501Z,1013.58
2018-07-02T12:00:29.530Z,1013.58
2018-07-02T12:01:29.559Z,1013.53
2018-07-02T12:02:29.588Z,1013.53
2018-07-02T12:03:29.618Z,1013.53
2018-07-02T12:04:29.645Z,1013.51
2018-07-02T12:05:29.670Z,1013.51
2018-07-02T12:06:29.699Z,1013.52
2018-07-02T12:07:29.728Z,1013.49
2018-07-02T12:08:29.755Z,1013.5
2018-07-02T12:09:29.782Z,1013.54
2018-07-02T12:10:29.809Z,1013.48
2018-07-02T12:11:29.839Z,1013.53
2018-07-02T12:12:29.867Z,1013.51
2018-07-02T12:13:29.896Z,1013.47
2018-07-02T12:14:29.923Z,1013.49
2018-07-02T12:15:29.952Z,1013.52
2018-07-02T12:16:29.978Z,1013.5
2018-07-02T12:17:30.009Z,1013.48
2018-07-02T12:18:30.034Z,1013.46
2018-07-02T12:19:30.067Z,1013.37
2018-07-02T12:20:30.090Z,1013.39
2018-07-02T12:22:30.145Z,1013.39
2018-07-02T12:23:30.172Z,1013.41
2018-07-02T12:24:30.201Z,1013.46
2018-07-02T12:25:30.228Z,1013.35
2018-07-02T12:26:30.257Z,1013.41
2018-07-02T12:27:30.289Z,1013.41
2018-07-02T12:28:30.313Z,1013.33
2018-07-02T12:29:30.342Z,1013.34
2018-07-02T12:30:30.368Z,1013.3
2018-07-02T12:31:30.399Z,1013.3
2018-07-02T12:32:30.425Z,1013.37
2018-07-02T12:33:30.522Z,1013.32
2018-07-02T12:34:30.481Z,1013.34
2018-07-02T12:35:30.507Z,1013.33
2018-07-02T12:36:30.537Z,1013.28
2018-07-02T12:38:30.593Z,1013.28
2018-07-02T12:39:30.620Z,1013.4
2018-07-02T12:40:30.649Z,1013.36
2018-07-02T12:41:30.681Z,1013.34
2018-07-02T12:42:30.706Z,1013.32
2018-07-02T12:43:30.735Z,1013.33
2018-07-02T12:44:30.762Z,1013.39
2018-07-02T12:45:30.788Z,1013.36
2018-07-02T12:46:30.817Z,1013.28
2018-07-02T12:47:30.845Z,1013.29
2018-07-02T12:48:30.872Z,1013.26